sensor_id;sensor_type;location;lat;lon;timestamp;temperature;humidity
26230;DHT22;13960;50.860;4.352;2022-08-03T00:01:44;23.20;99.90
26230;DHT22;13960;50.860;4.352;2022-08-03T00:04:10;23.10;99.90
26230;DHT22;13960;50.860;4.352;2022-08-03T00:06:36;23.10;99.90
26230;DHT22;13960;50.860;4.352;2022-08-03T00:09:03;23.00;99.90
26230;DHT22;13960;50.860;4.352;2022-08-03T00:11:28;23.00;99.90
26230;DHT22;13960;50.860;4.352;2022-08-03T00:13:54;22.90;99.90
26230;DHT22;13960;50.860;4.352;2022-08-03T00:16:19;22.80;99.90
26230;DHT22;13960;50.860;4.352;2022-08-03T00:18:45;22.90;99.90
26230;DHT22;13960;50.860;4.352;2022-08-03T00:21:11;22.90;99.90
26230;DHT22;13960;50.860;4.352;2022-08-03T00:23:36;22.90;99.90
26230;DHT22;13960;50.860;4.352;2022-08-03T00:26:02;22.70;99.90
26230;DHT22;13960;50.860;4.352;2022-08-03T00:28:28;22.70;99.90
26230;DHT22;13960;50.860;4.352;2022-08-03T00:30:54;22.70;99.90
26230;DHT22;13960;50.860;4.352;2022-08-03T00:33:22;22.80;99.90
26230;DHT22;13960;50.860;4.352;2022-08-03T00:35:48;22.80;99.90
26230;DHT22;13960;50.860;4.352;2022-08-03T00:38:14;22.70;99.90
26230;DHT22;13960;50.860;4.352;2022-08-03T00:40:39;22.90;99.90
26230;DHT22;13960;50.860;4.352;2022-08-03T00:43:05;22.90;99.90
26230;DHT22;13960;50.860;4.352;2022-08-03T00:45:32;22.90;99.90
26230;DHT22;13960;50.860;4.352;2022-08-03T00:47:58;23.00;99.90
26230;DHT22;13960;50.860;4.352;2022-08-03T00:50:25;22.90;99.90
26230;DHT22;13960;50.860;4.352;2022-08-03T00:52:52;22.70;99.90
26230;DHT22;13960;50.860;4.352;2022-08-03T00:55:18;22.70;99.90
26230;DHT22;13960;50.860;4.352;2022-08-03T00:57:44;22.60;99.90
26230;DHT22;13960;50.860;4.352;2022-08-03T01:00:11;22.40;99.90
26230;DHT22;13960;50.860;4.352;2022-08-03T01:02:38;22.30;99.90
26230;DHT22;13960;50.860;4.352;2022-08-03T01:05:03;22.20;99.90
26230;DHT22;13960;50.860;4.352;2022-08-03T01:08:12;22.20;99.90
26230;DHT22;13960;50.860;4.352;2022-08-03T01:10:25;22.10;99.90
26230;DHT22;13960;50.860;4.352;2022-08-03T01:19:34;22.40;99.90
26230;DHT22;13960;50.860;4.352;2022-08-03T01:21:40;22.20;99.90
26230;DHT22;13960;50.860;4.352;2022-08-03T01:24:17;22.20;99.90
26230;DHT22;13960;50.860;4.352;2022-08-03T01:29:38;22.30;99.90
26230;DHT22;13960;50.860;4.352;2022-08-03T01:32:10;22.20;99.90
26230;DHT22;13960;50.860;4.352;2022-08-03T01:34:40;22.10;99.90
26230;DHT22;13960;50.860;4.352;2022-08-03T01:37:08;22.00;99.90
26230;DHT22;13960;50.860;4.352;2022-08-03T01:39:35;22.00;99.90
26230;DHT22;13960;50.860;4.352;2022-08-03T01:42:03;22.20;99.90
26230;DHT22;13960;50.860;4.352;2022-08-03T01:44:32;22.10;99.90
26230;DHT22;13960;50.860;4.352;2022-08-03T01:46:59;22.00;99.90
26230;DHT22;13960;50.860;4.352;2022-08-03T01:49:26;22.00;99.90
26230;DHT22;13960;50.860;4.352;2022-08-03T01:51:51;21.90;99.90
26230;DHT22;13960;50.860;4.352;2022-08-03T01:54:18;22.10;99.90
26230;DHT22;13960;50.860;4.352;2022-08-03T01:56:45;22.40;99.90
26230;DHT22;13960;50.860;4.352;2022-08-03T01:59:11;22.50;99.90
26230;DHT22;13960;50.860;4.352;2022-08-03T02:01:38;22.60;99.90
26230;DHT22;13960;50.860;4.352;2022-08-03T02:04:04;22.70;99.90
26230;DHT22;13960;50.860;4.352;2022-08-03T02:06:31;22.70;99.90
26230;DHT22;13960;50.860;4.352;2022-08-03T02:08:58;23.00;99.90
26230;DHT22;13960;50.860;4.352;2022-08-03T02:11:24;23.00;99.90
26230;DHT22;13960;50.860;4.352;2022-08-03T02:13:49;23.00;99.90
26230;DHT22;13960;50.860;4.352;2022-08-03T02:16:15;23.00;99.90
26230;DHT22;13960;50.860;4.352;2022-08-03T02:18:42;23.10;99.90
26230;DHT22;13960;50.860;4.352;2022-08-03T02:21:08;23.00;99.90
26230;DHT22;13960;50.860;4.352;2022-08-03T02:23:35;22.90;99.90
26230;DHT22;13960;50.860;4.352;2022-08-03T02:26:02;22.70;99.90
26230;DHT22;13960;50.860;4.352;2022-08-03T02:28:31;22.60;99.90
26230;DHT22;13960;50.860;4.352;2022-08-03T02:30:57;22.50;99.90
26230;DHT22;13960;50.860;4.352;2022-08-03T02:33:29;22.60;99.90
26230;DHT22;13960;50.860;4.352;2022-08-03T02:35:56;22.50;99.90
26230;DHT22;13960;50.860;4.352;2022-08-03T02:38:22;22.40;99.90
26230;DHT22;13960;50.860;4.352;2022-08-03T02:40:50;22.30;99.90
26230;DHT22;13960;50.860;4.352;2022-08-03T02:43:19;22.30;99.90
26230;DHT22;13960;50.860;4.352;2022-08-03T02:45:45;22.40;99.90
26230;DHT22;13960;50.860;4.352;2022-08-03T02:48:15;22.50;99.90
26230;DHT22;13960;50.860;4.352;2022-08-03T02:50:41;22.40;99.90
26230;DHT22;13960;50.860;4.352;2022-08-03T02:53:07;22.40;99.90
26230;DHT22;13960;50.860;4.352;2022-08-03T02:55:33;22.30;99.90
26230;DHT22;13960;50.860;4.352;2022-08-03T02:58:01;22.20;99.90
26230;DHT22;13960;50.860;4.352;2022-08-03T03:00:28;22.00;99.90
26230;DHT22;13960;50.860;4.352;2022-08-03T03:02:59;22.00;99.90
26230;DHT22;13960;50.860;4.352;2022-08-03T03:05:25;22.00;99.90
26230;DHT22;13960;50.860;4.352;2022-08-03T03:07:50;21.90;99.90
26230;DHT22;13960;50.860;4.352;2022-08-03T03:10:16;21.80;99.90
26230;DHT22;13960;50.860;4.352;2022-08-03T03:12:43;21.70;99.90
26230;DHT22;13960;50.860;4.352;2022-08-03T03:15:09;21.60;99.90
26230;DHT22;13960;50.860;4.352;2022-08-03T03:17:35;21.50;99.90
26230;DHT22;13960;50.860;4.352;2022-08-03T03:20:01;21.50;99.90
26230;DHT22;13960;50.860;4.352;2022-08-03T03:22:27;21.40;99.90
26230;DHT22;13960;50.860;4.352;2022-08-03T03:24:53;21.40;99.90
26230;DHT22;13960;50.860;4.352;2022-08-03T03:27:20;21.40;99.90
26230;DHT22;13960;50.860;4.352;2022-08-03T03:29:46;21.50;99.90
26230;DHT22;13960;50.860;4.352;2022-08-03T03:32:12;21.50;99.90
26230;DHT22;13960;50.860;4.352;2022-08-03T03:34:38;21.40;99.90
26230;DHT22;13960;50.860;4.352;2022-08-03T03:37:04;21.60;99.90
26230;DHT22;13960;50.860;4.352;2022-08-03T03:39:30;21.50;99.90
26230;DHT22;13960;50.860;4.352;2022-08-03T03:41:56;21.50;99.90
26230;DHT22;13960;50.860;4.352;2022-08-03T03:44:25;21.50;99.90
26230;DHT22;13960;50.860;4.352;2022-08-03T03:46:50;21.40;99.90
26230;DHT22;13960;50.860;4.352;2022-08-03T03:49:16;21.60;99.90
26230;DHT22;13960;50.860;4.352;2022-08-03T03:51:41;21.70;99.90
26230;DHT22;13960;50.860;4.352;2022-08-03T03:54:07;21.70;99.90
26230;DHT22;13960;50.860;4.352;2022-08-03T03:56:32;21.50;99.90
26230;DHT22;13960;50.860;4.352;2022-08-03T03:58:58;21.50;99.90
26230;DHT22;13960;50.860;4.352;2022-08-03T04:01:24;21.50;99.90
26230;DHT22;13960;50.860;4.352;2022-08-03T04:03:50;21.40;99.90
26230;DHT22;13960;50.860;4.352;2022-08-03T04:06:15;21.40;99.90
26230;DHT22;13960;50.860;4.352;2022-08-03T04:09:00;21.40;99.90
26230;DHT22;13960;50.860;4.352;2022-08-03T04:14:11;21.20;99.90
26230;DHT22;13960;50.860;4.352;2022-08-03T04:16:39;21.20;99.90
26230;DHT22;13960;50.860;4.352;2022-08-03T04:19:09;21.20;99.90
26230;DHT22;13960;50.860;4.352;2022-08-03T04:21:37;21.20;99.90
26230;DHT22;13960;50.860;4.352;2022-08-03T04:24:05;21.30;99.90
26230;DHT22;13960;50.860;4.352;2022-08-03T04:26:33;21.40;99.90
26230;DHT22;13960;50.860;4.352;2022-08-03T04:29:00;21.40;99.90
26230;DHT22;13960;50.860;4.352;2022-08-03T04:31:27;21.50;99.90
26230;DHT22;13960;50.860;4.352;2022-08-03T04:33:54;21.30;99.90
26230;DHT22;13960;50.860;4.352;2022-08-03T04:36:24;21.30;99.90
26230;DHT22;13960;50.860;4.352;2022-08-03T04:38:59;21.20;99.90
26230;DHT22;13960;50.860;4.352;2022-08-03T04:41:26;21.20;99.90
26230;DHT22;13960;50.860;4.352;2022-08-03T04:43:53;21.20;99.90
26230;DHT22;13960;50.860;4.352;2022-08-03T04:46:19;21.30;99.90
26230;DHT22;13960;50.860;4.352;2022-08-03T04:48:46;21.30;99.90
26230;DHT22;13960;50.860;4.352;2022-08-03T04:51:12;21.20;99.90
26230;DHT22;13960;50.860;4.352;2022-08-03T04:53:38;21.30;99.90
26230;DHT22;13960;50.860;4.352;2022-08-03T04:56:04;21.30;99.90
26230;DHT22;13960;50.860;4.352;2022-08-03T04:58:30;21.20;99.90
26230;DHT22;13960;50.860;4.352;2022-08-03T05:00:55;21.30;99.90
26230;DHT22;13960;50.860;4.352;2022-08-03T05:03:21;21.20;99.90
26230;DHT22;13960;50.860;4.352;2022-08-03T05:05:46;21.20;99.90
26230;DHT22;13960;50.860;4.352;2022-08-03T05:08:12;21.30;99.90
26230;DHT22;13960;50.860;4.352;2022-08-03T05:10:37;21.30;99.90
26230;DHT22;13960;50.860;4.352;2022-08-03T05:13:03;21.40;99.90
26230;DHT22;13960;50.860;4.352;2022-08-03T05:15:29;21.40;99.90
26230;DHT22;13960;50.860;4.352;2022-08-03T05:17:54;21.30;99.90
26230;DHT22;13960;50.860;4.352;2022-08-03T05:20:20;21.30;99.90
26230;DHT22;13960;50.860;4.352;2022-08-03T05:22:45;21.30;99.90
26230;DHT22;13960;50.860;4.352;2022-08-03T05:25:11;21.30;99.90
26230;DHT22;13960;50.860;4.352;2022-08-03T05:27:37;21.40;99.90
26230;DHT22;13960;50.860;4.352;2022-08-03T05:30:02;21.40;99.90
26230;DHT22;13960;50.860;4.352;2022-08-03T05:32:29;21.30;99.90
26230;DHT22;13960;50.860;4.352;2022-08-03T05:34:55;21.30;99.90
26230;DHT22;13960;50.860;4.352;2022-08-03T05:37:20;21.40;99.90
26230;DHT22;13960;50.860;4.352;2022-08-03T05:39:46;21.40;99.90
26230;DHT22;13960;50.860;4.352;2022-08-03T05:42:13;21.40;99.90
26230;DHT22;13960;50.860;4.352;2022-08-03T05:44:39;21.30;99.90
26230;DHT22;13960;50.860;4.352;2022-08-03T05:47:06;21.40;99.90
26230;DHT22;13960;50.860;4.352;2022-08-03T05:49:31;21.60;99.90
26230;DHT22;13960;50.860;4.352;2022-08-03T05:51:57;21.70;99.90
26230;DHT22;13960;50.860;4.352;2022-08-03T05:54:22;21.70;99.90
26230;DHT22;13960;50.860;4.352;2022-08-03T05:56:48;21.50;99.90
26230;DHT22;13960;50.860;4.352;2022-08-03T05:59:13;21.40;99.90
26230;DHT22;13960;50.860;4.352;2022-08-03T06:01:39;21.40;99.90
26230;DHT22;13960;50.860;4.352;2022-08-03T06:04:05;21.40;99.90
26230;DHT22;13960;50.860;4.352;2022-08-03T06:06:31;21.30;99.90
26230;DHT22;13960;50.860;4.352;2022-08-03T06:08:57;21.20;99.90
26230;DHT22;13960;50.860;4.352;2022-08-03T06:11:22;21.00;99.90
26230;DHT22;13960;50.860;4.352;2022-08-03T06:13:49;21.00;99.90
26230;DHT22;13960;50.860;4.352;2022-08-03T06:16:14;21.10;99.90
26230;DHT22;13960;50.860;4.352;2022-08-03T06:18:40;21.10;99.90
26230;DHT22;13960;50.860;4.352;2022-08-03T06:21:06;21.20;99.90
26230;DHT22;13960;50.860;4.352;2022-08-03T06:23:32;21.20;99.90
26230;DHT22;13960;50.860;4.352;2022-08-03T06:25:58;21.30;99.90
26230;DHT22;13960;50.860;4.352;2022-08-03T06:28:23;21.30;99.90
26230;DHT22;13960;50.860;4.352;2022-08-03T06:30:49;21.30;99.90
26230;DHT22;13960;50.860;4.352;2022-08-03T06:33:15;21.30;99.90
26230;DHT22;13960;50.860;4.352;2022-08-03T06:35:41;21.40;99.90
26230;DHT22;13960;50.860;4.352;2022-08-03T06:38:06;21.40;99.90
26230;DHT22;13960;50.860;4.352;2022-08-03T06:40:34;21.30;99.90
26230;DHT22;13960;50.860;4.352;2022-08-03T06:43:04;21.30;99.90
26230;DHT22;13960;50.860;4.352;2022-08-03T06:45:31;21.30;99.90
26230;DHT22;13960;50.860;4.352;2022-08-03T06:48:01;21.40;99.90
26230;DHT22;13960;50.860;4.352;2022-08-03T06:50:26;21.50;99.90
26230;DHT22;13960;50.860;4.352;2022-08-03T06:52:52;21.80;99.90
26230;DHT22;13960;50.860;4.352;2022-08-03T06:55:18;21.80;99.90
26230;DHT22;13960;50.860;4.352;2022-08-03T06:57:43;21.90;99.90
26230;DHT22;13960;50.860;4.352;2022-08-03T07:00:09;22.10;99.90
26230;DHT22;13960;50.860;4.352;2022-08-03T07:02:36;22.10;99.90
26230;DHT22;13960;50.860;4.352;2022-08-03T07:05:02;22.10;99.90
26230;DHT22;13960;50.860;4.352;2022-08-03T07:07:28;22.20;99.90
26230;DHT22;13960;50.860;4.352;2022-08-03T07:09:53;22.10;99.90
26230;DHT22;13960;50.860;4.352;2022-08-03T07:12:19;22.10;99.90
26230;DHT22;13960;50.860;4.352;2022-08-03T07:14:44;22.10;99.90
26230;DHT22;13960;50.860;4.352;2022-08-03T07:17:10;22.20;99.90
26230;DHT22;13960;50.860;4.352;2022-08-03T07:19:35;22.30;99.90
26230;DHT22;13960;50.860;4.352;2022-08-03T07:22:01;22.30;99.90
26230;DHT22;13960;50.860;4.352;2022-08-03T07:24:28;22.30;99.90
26230;DHT22;13960;50.860;4.352;2022-08-03T07:26:54;22.40;99.90
26230;DHT22;13960;50.860;4.352;2022-08-03T07:29:20;22.50;99.90
26230;DHT22;13960;50.860;4.352;2022-08-03T07:31:46;22.70;99.90
26230;DHT22;13960;50.860;4.352;2022-08-03T07:34:11;22.70;99.90
26230;DHT22;13960;50.860;4.352;2022-08-03T07:36:37;22.70;99.90
26230;DHT22;13960;50.860;4.352;2022-08-03T07:39:03;22.80;99.90
26230;DHT22;13960;50.860;4.352;2022-08-03T07:41:28;22.90;99.90
26230;DHT22;13960;50.860;4.352;2022-08-03T07:43:54;23.10;99.90
26230;DHT22;13960;50.860;4.352;2022-08-03T07:46:19;23.20;99.90
26230;DHT22;13960;50.860;4.352;2022-08-03T07:48:45;23.10;99.90
26230;DHT22;13960;50.860;4.352;2022-08-03T07:51:10;23.10;99.90
26230;DHT22;13960;50.860;4.352;2022-08-03T07:53:36;23.10;99.90
26230;DHT22;13960;50.860;4.352;2022-08-03T07:56:02;23.20;99.90
26230;DHT22;13960;50.860;4.352;2022-08-03T07:58:27;23.20;99.90
26230;DHT22;13960;50.860;4.352;2022-08-03T08:00:53;23.30;99.90
26230;DHT22;13960;50.860;4.352;2022-08-03T08:03:18;23.30;99.90
26230;DHT22;13960;50.860;4.352;2022-08-03T08:05:44;23.40;99.90
26230;DHT22;13960;50.860;4.352;2022-08-03T08:08:09;23.40;99.90
26230;DHT22;13960;50.860;4.352;2022-08-03T08:10:35;23.50;99.90
26230;DHT22;13960;50.860;4.352;2022-08-03T08:13:01;23.60;99.90
26230;DHT22;13960;50.860;4.352;2022-08-03T08:15:27;23.70;99.90
26230;DHT22;13960;50.860;4.352;2022-08-03T08:17:53;23.90;99.90
26230;DHT22;13960;50.860;4.352;2022-08-03T08:20:23;24.10;99.90
26230;DHT22;13960;50.860;4.352;2022-08-03T08:22:49;24.20;99.90
26230;DHT22;13960;50.860;4.352;2022-08-03T08:25:14;24.30;99.90
26230;DHT22;13960;50.860;4.352;2022-08-03T08:27:47;24.20;99.90
26230;DHT22;13960;50.860;4.352;2022-08-03T08:30:16;24.20;99.90
26230;DHT22;13960;50.860;4.352;2022-08-03T08:32:49;24.20;99.90
26230;DHT22;13960;50.860;4.352;2022-08-03T08:35:16;24.30;99.90
26230;DHT22;13960;50.860;4.352;2022-08-03T08:37:43;24.30;99.90
26230;DHT22;13960;50.860;4.352;2022-08-03T08:40:12;24.40;99.90
26230;DHT22;13960;50.860;4.352;2022-08-03T08:42:38;24.50;99.90
26230;DHT22;13960;50.860;4.352;2022-08-03T08:45:05;24.70;99.90
26230;DHT22;13960;50.860;4.352;2022-08-03T08:47:35;24.80;99.90
26230;DHT22;13960;50.860;4.352;2022-08-03T08:50:03;24.90;99.90
26230;DHT22;13960;50.860;4.352;2022-08-03T08:52:29;25.00;99.90
26230;DHT22;13960;50.860;4.352;2022-08-03T08:55:00;24.90;99.90
26230;DHT22;13960;50.860;4.352;2022-08-03T08:57:37;24.90;99.90
26230;DHT22;13960;50.860;4.352;2022-08-03T09:00:09;25.00;99.90
26230;DHT22;13960;50.860;4.352;2022-08-03T09:02:40;25.00;99.90
26230;DHT22;13960;50.860;4.352;2022-08-03T09:05:10;25.00;99.90
26230;DHT22;13960;50.860;4.352;2022-08-03T09:07:40;25.10;99.90
26230;DHT22;13960;50.860;4.352;2022-08-03T09:10:06;25.10;99.90
26230;DHT22;13960;50.860;4.352;2022-08-03T09:12:42;25.00;99.90
26230;DHT22;13960;50.860;4.352;2022-08-03T09:15:24;25.20;99.90
26230;DHT22;13960;50.860;4.352;2022-08-03T09:17:50;25.20;99.90
26230;DHT22;13960;50.860;4.352;2022-08-03T09:20:16;25.20;99.90
26230;DHT22;13960;50.860;4.352;2022-08-03T09:22:52;25.20;99.90
26230;DHT22;13960;50.860;4.352;2022-08-03T09:25:18;25.30;99.90
26230;DHT22;13960;50.860;4.352;2022-08-03T09:27:45;25.50;99.90
26230;DHT22;13960;50.860;4.352;2022-08-03T09:30:13;25.50;99.90
26230;DHT22;13960;50.860;4.352;2022-08-03T09:32:39;25.70;99.90
26230;DHT22;13960;50.860;4.352;2022-08-03T09:35:04;25.70;99.90
26230;DHT22;13960;50.860;4.352;2022-08-03T09:37:31;25.90;99.90
26230;DHT22;13960;50.860;4.352;2022-08-03T09:39:58;26.00;99.90
26230;DHT22;13960;50.860;4.352;2022-08-03T09:42:29;26.00;99.90
26230;DHT22;13960;50.860;4.352;2022-08-03T09:44:57;26.20;99.90
26230;DHT22;13960;50.860;4.352;2022-08-03T09:47:28;26.10;99.90
26230;DHT22;13960;50.860;4.352;2022-08-03T09:49:57;25.90;99.90
26230;DHT22;13960;50.860;4.352;2022-08-03T09:52:28;25.90;99.90
26230;DHT22;13960;50.860;4.352;2022-08-03T09:54:54;26.10;99.90
26230;DHT22;13960;50.860;4.352;2022-08-03T09:57:21;26.10;99.90
26230;DHT22;13960;50.860;4.352;2022-08-03T09:59:47;26.20;99.90
26230;DHT22;13960;50.860;4.352;2022-08-03T10:02:26;26.30;99.90
26230;DHT22;13960;50.860;4.352;2022-08-03T10:04:53;26.30;99.90
26230;DHT22;13960;50.860;4.352;2022-08-03T10:07:20;26.40;99.90
26230;DHT22;13960;50.860;4.352;2022-08-03T10:09:52;26.50;99.90
26230;DHT22;13960;50.860;4.352;2022-08-03T10:12:18;26.60;99.90
26230;DHT22;13960;50.860;4.352;2022-08-03T10:14:44;26.70;99.90
26230;DHT22;13960;50.860;4.352;2022-08-03T10:17:11;26.60;99.90
26230;DHT22;13960;50.860;4.352;2022-08-03T10:19:36;26.60;99.90
26230;DHT22;13960;50.860;4.352;2022-08-03T10:22:21;26.60;99.90
26230;DHT22;13960;50.860;4.352;2022-08-03T10:25:01;26.70;99.90
26230;DHT22;13960;50.860;4.352;2022-08-03T10:27:33;26.90;99.90
26230;DHT22;13960;50.860;4.352;2022-08-03T10:30:00;27.00;99.90
26230;DHT22;13960;50.860;4.352;2022-08-03T10:35:09;26.90;99.90
26230;DHT22;13960;50.860;4.352;2022-08-03T10:37:42;27.00;99.90
26230;DHT22;13960;50.860;4.352;2022-08-03T10:40:15;27.00;99.90
26230;DHT22;13960;50.860;4.352;2022-08-03T10:42:43;27.10;99.90
26230;DHT22;13960;50.860;4.352;2022-08-03T10:45:19;27.30;99.90
26230;DHT22;13960;50.860;4.352;2022-08-03T10:47:46;27.40;99.90
26230;DHT22;13960;50.860;4.352;2022-08-03T10:50:11;27.50;99.90
26230;DHT22;13960;50.860;4.352;2022-08-03T10:52:53;27.40;99.90
26230;DHT22;13960;50.860;4.352;2022-08-03T10:55:28;27.50;99.90
26230;DHT22;13960;50.860;4.352;2022-08-03T10:58:12;27.40;99.90
26230;DHT22;13960;50.860;4.352;2022-08-03T11:00:47;27.50;99.90
26230;DHT22;13960;50.860;4.352;2022-08-03T11:03:13;27.60;99.90
26230;DHT22;13960;50.860;4.352;2022-08-03T11:10:48;27.60;99.90
26230;DHT22;13960;50.860;4.352;2022-08-03T11:13:15;27.60;99.90
26230;DHT22;13960;50.860;4.352;2022-08-03T11:15:42;27.70;99.90
26230;DHT22;13960;50.860;4.352;2022-08-03T11:18:08;27.80;99.90
26230;DHT22;13960;50.860;4.352;2022-08-03T11:20:51;27.90;99.90
26230;DHT22;13960;50.860;4.352;2022-08-03T11:23:18;27.90;99.90
26230;DHT22;13960;50.860;4.352;2022-08-03T11:28:28;27.90;99.90
26230;DHT22;13960;50.860;4.352;2022-08-03T11:30:55;28.10;99.90
26230;DHT22;13960;50.860;4.352;2022-08-03T11:33:30;28.00;99.90
26230;DHT22;13960;50.860;4.352;2022-08-03T11:35:59;28.00;99.90
26230;DHT22;13960;50.860;4.352;2022-08-03T11:38:25;28.10;99.90
26230;DHT22;13960;50.860;4.352;2022-08-03T11:40:51;28.20;99.90
26230;DHT22;13960;50.860;4.352;2022-08-03T11:45:59;28.20;99.90
26230;DHT22;13960;50.860;4.352;2022-08-03T11:48:27;28.20;99.90
26230;DHT22;13960;50.860;4.352;2022-08-03T11:50:54;28.40;99.90
26230;DHT22;13960;50.860;4.352;2022-08-03T11:53:20;28.80;99.90
26230;DHT22;13960;50.860;4.352;2022-08-03T11:55:46;29.00;99.90
26230;DHT22;13960;50.860;4.352;2022-08-03T11:58:15;28.90;99.90
26230;DHT22;13960;50.860;4.352;2022-08-03T12:00:42;29.00;99.90
26230;DHT22;13960;50.860;4.352;2022-08-03T12:03:11;29.20;99.90
26230;DHT22;13960;50.860;4.352;2022-08-03T12:05:48;29.20;99.90
26230;DHT22;13960;50.860;4.352;2022-08-03T12:08:15;29.40;99.90
26230;DHT22;13960;50.860;4.352;2022-08-03T12:10:46;29.70;99.90
26230;DHT22;13960;50.860;4.352;2022-08-03T12:13:12;29.90;99.90
26230;DHT22;13960;50.860;4.352;2022-08-03T12:15:39;30.00;99.90
26230;DHT22;13960;50.860;4.352;2022-08-03T12:18:16;29.90;99.90
26230;DHT22;13960;50.860;4.352;2022-08-03T12:20:45;29.90;99.90
26230;DHT22;13960;50.860;4.352;2022-08-03T12:23:11;29.70;99.90
26230;DHT22;13960;50.860;4.352;2022-08-03T12:25:37;29.70;99.90
26230;DHT22;13960;50.860;4.352;2022-08-03T12:28:08;29.90;99.90
26230;DHT22;13960;50.860;4.352;2022-08-03T12:30:35;30.00;99.90
26230;DHT22;13960;50.860;4.352;2022-08-03T12:33:23;30.10;99.90
26230;DHT22;13960;50.860;4.352;2022-08-03T12:36:09;30.20;99.90
26230;DHT22;13960;50.860;4.352;2022-08-03T12:38:36;30.20;99.90
26230;DHT22;13960;50.860;4.352;2022-08-03T12:41:04;30.40;99.90
26230;DHT22;13960;50.860;4.352;2022-08-03T12:43:31;30.40;99.90
26230;DHT22;13960;50.860;4.352;2022-08-03T12:46:07;30.60;99.90
26230;DHT22;13960;50.860;4.352;2022-08-03T12:48:33;30.90;99.90
26230;DHT22;13960;50.860;4.352;2022-08-03T12:51:08;31.20;99.90
26230;DHT22;13960;50.860;4.352;2022-08-03T12:53:34;31.00;99.90
26230;DHT22;13960;50.860;4.352;2022-08-03T12:56:01;31.10;99.90
26230;DHT22;13960;50.860;4.352;2022-08-03T12:58:30;31.40;99.90
26230;DHT22;13960;50.860;4.352;2022-08-03T13:00:58;31.40;99.90
26230;DHT22;13960;50.860;4.352;2022-08-03T13:03:24;31.50;99.90
26230;DHT22;13960;50.860;4.352;2022-08-03T13:05:50;31.70;99.90
26230;DHT22;13960;50.860;4.352;2022-08-03T13:10:45;31.80;99.90
26230;DHT22;13960;50.860;4.352;2022-08-03T13:13:11;31.80;99.90
26230;DHT22;13960;50.860;4.352;2022-08-03T13:15:38;31.60;99.90
26230;DHT22;13960;50.860;4.352;2022-08-03T13:18:04;31.60;99.90
26230;DHT22;13960;50.860;4.352;2022-08-03T13:20:30;32.00;99.90
26230;DHT22;13960;50.860;4.352;2022-08-03T13:22:57;32.40;99.90
26230;DHT22;13960;50.860;4.352;2022-08-03T13:25:23;32.40;99.90
26230;DHT22;13960;50.860;4.352;2022-08-03T13:27:49;32.20;99.90
26230;DHT22;13960;50.860;4.352;2022-08-03T13:30:17;32.10;99.90
26230;DHT22;13960;50.860;4.352;2022-08-03T13:32:43;32.00;99.90
26230;DHT22;13960;50.860;4.352;2022-08-03T13:35:10;32.10;99.90
26230;DHT22;13960;50.860;4.352;2022-08-03T13:37:36;32.00;99.90
26230;DHT22;13960;50.860;4.352;2022-08-03T13:40:04;31.80;99.90
26230;DHT22;13960;50.860;4.352;2022-08-03T13:42:31;31.80;99.90
26230;DHT22;13960;50.860;4.352;2022-08-03T13:45:03;31.90;99.90
26230;DHT22;13960;50.860;4.352;2022-08-03T13:47:29;31.30;99.90
26230;DHT22;13960;50.860;4.352;2022-08-03T13:49:54;31.30;99.90
26230;DHT22;13960;50.860;4.352;2022-08-03T13:52:20;32.00;99.90
26230;DHT22;13960;50.860;4.352;2022-08-03T13:54:46;32.60;99.90
26230;DHT22;13960;50.860;4.352;2022-08-03T13:57:11;33.10;99.90
26230;DHT22;13960;50.860;4.352;2022-08-03T13:59:37;33.10;99.90
26230;DHT22;13960;50.860;4.352;2022-08-03T14:02:03;32.70;99.90
26230;DHT22;13960;50.860;4.352;2022-08-03T14:04:32;31.80;99.90
26230;DHT22;13960;50.860;4.352;2022-08-03T14:06:57;31.70;99.90
26230;DHT22;13960;50.860;4.352;2022-08-03T14:09:24;32.30;99.90
26230;DHT22;13960;50.860;4.352;2022-08-03T14:11:49;32.80;99.90
26230;DHT22;13960;50.860;4.352;2022-08-03T14:14:15;33.10;99.90
26230;DHT22;13960;50.860;4.352;2022-08-03T14:16:40;33.80;99.90
26230;DHT22;13960;50.860;4.352;2022-08-03T14:19:07;34.10;99.90
26230;DHT22;13960;50.860;4.352;2022-08-03T14:21:34;34.40;99.90
26230;DHT22;13960;50.860;4.352;2022-08-03T14:23:59;34.80;99.90
26230;DHT22;13960;50.860;4.352;2022-08-03T14:26:26;34.00;99.90
26230;DHT22;13960;50.860;4.352;2022-08-03T14:28:52;34.10;99.90
26230;DHT22;13960;50.860;4.352;2022-08-03T14:31:17;34.00;99.90
26230;DHT22;13960;50.860;4.352;2022-08-03T14:33:43;34.00;99.90
26230;DHT22;13960;50.860;4.352;2022-08-03T14:36:09;34.20;99.90
26230;DHT22;13960;50.860;4.352;2022-08-03T14:38:35;34.20;99.90
26230;DHT22;13960;50.860;4.352;2022-08-03T14:41:01;34.50;99.90
26230;DHT22;13960;50.860;4.352;2022-08-03T14:43:26;34.60;99.90
26230;DHT22;13960;50.860;4.352;2022-08-03T14:45:52;34.60;99.90
26230;DHT22;13960;50.860;4.352;2022-08-03T14:48:19;34.20;99.90
26230;DHT22;13960;50.860;4.352;2022-08-03T14:50:45;34.30;99.90
26230;DHT22;13960;50.860;4.352;2022-08-03T14:53:11;34.50;99.90
26230;DHT22;13960;50.860;4.352;2022-08-03T14:55:40;34.90;99.90
26230;DHT22;13960;50.860;4.352;2022-08-03T14:58:07;35.60;99.30
26230;DHT22;13960;50.860;4.352;2022-08-03T15:00:33;36.00;98.70
26230;DHT22;13960;50.860;4.352;2022-08-03T15:02:58;36.40;98.20
26230;DHT22;13960;50.860;4.352;2022-08-03T15:05:24;37.20;97.30
26230;DHT22;13960;50.860;4.352;2022-08-03T15:07:50;38.30;96.70
26230;DHT22;13960;50.860;4.352;2022-08-03T15:10:16;38.90;95.20
26230;DHT22;13960;50.860;4.352;2022-08-03T15:12:43;37.40;94.90
26230;DHT22;13960;50.860;4.352;2022-08-03T15:15:08;37.40;95.00
26230;DHT22;13960;50.860;4.352;2022-08-03T15:17:34;37.30;94.90
26230;DHT22;13960;50.860;4.352;2022-08-03T15:20:00;37.90;94.40
26230;DHT22;13960;50.860;4.352;2022-08-03T15:22:25;40.40;93.40
26230;DHT22;13960;50.860;4.352;2022-08-03T15:24:52;41.70;91.70
26230;DHT22;13960;50.860;4.352;2022-08-03T15:27:18;42.50;90.60
26230;DHT22;13960;50.860;4.352;2022-08-03T15:29:43;40.90;88.00
26230;DHT22;13960;50.860;4.352;2022-08-03T15:32:09;38.70;90.10
26230;DHT22;13960;50.860;4.352;2022-08-03T15:34:35;37.90;90.30
26230;DHT22;13960;50.860;4.352;2022-08-03T15:37:01;37.70;90.60
26230;DHT22;13960;50.860;4.352;2022-08-03T15:39:26;36.70;91.30
26230;DHT22;13960;50.860;4.352;2022-08-03T15:41:52;36.00;91.90
26230;DHT22;13960;50.860;4.352;2022-08-03T15:44:18;36.10;92.00
26230;DHT22;13960;50.860;4.352;2022-08-03T15:46:45;36.10;92.40
26230;DHT22;13960;50.860;4.352;2022-08-03T15:49:12;35.90;92.20
26230;DHT22;13960;50.860;4.352;2022-08-03T15:51:38;36.30;92.20
26230;DHT22;13960;50.860;4.352;2022-08-03T15:54:04;36.40;91.90
26230;DHT22;13960;50.860;4.352;2022-08-03T15:56:31;36.70;91.90
26230;DHT22;13960;50.860;4.352;2022-08-03T15:58:58;37.50;91.70